Time;durP1;ratioP1;P1;durP2;ratioP2;P2;SDS_P1;SDS_P2;PMS_P1;PMS_P2;Temp;Humidity;BMP_temperature;BMP_pressure;BME280_temperature;BME280_humidity;BME280_pressure;Samples;Min_cycle;Max_cycle;Signal;HPM_P1;HPM_P2
2022/09/05 00:02:00;;;;;;;10.00;3.47;;;17.40;99.90;;;;;;4991688;28;20140;-72
2022/09/05 00:04:40;;;;;;;11.77;3.42;;;17.50;99.90;;;;;;4991881;28;20045;-70
2022/09/05 00:07:20;;;;;;;8.63;3.70;;;17.80;99.90;;;;;;5004605;28;20040;-71
2022/09/05 00:09:45;;;;;;;11.63;4.03;;;18.10;99.90;;;;;;5086686;28;20694;-71
2022/09/05 00:12:12;;;;;;;12.85;4.07;;;18.30;99.90;;;;;;5110731;27;20032;-70
2022/09/05 00:15:06;;;;;;;12.20;4.13;;;18.40;99.90;;;;;;5102433;28;20024;-73
2022/09/05 00:17:52;;;;;;;12.05;4.35;;;18.40;99.90;;;;;;5102705;27;20036;-71
2022/09/05 00:20:22;;;;;;;9.85;4.38;;;18.40;99.90;;;;;;5105637;27;20079;-71
2022/09/05 00:23:05;;;;;;;10.13;3.97;;;18.40;99.90;;;;;;5088720;27;20015;-69
2022/09/05 00:26:15;;;;;;;11.48;4.35;;;18.30;99.90;;;;;;5090031;27;20034;-70
2022/09/05 00:29:11;;;;;;;18.83;5.75;;;18.40;99.90;;;;;;5103064;28;20050;-70
2022/09/05 00:31:54;;;;;;;25.08;5.97;;;18.40;99.90;;;;;;5105045;28;20058;-71
2022/09/05 00:34:41;;;;;;;35.88;8.48;;;18.40;99.90;;;;;;5111766;27;20055;-69
2022/09/05 00:37:09;;;;;;;39.40;8.00;;;18.40;99.90;;;;;;5104006;28;20097;-70
2022/09/05 00:39:40;;;;;;;32.38;6.93;;;18.30;99.90;;;;;;5078843;28;20028;-70
2022/09/05 00:42:15;;;;;;;29.45;7.07;;;18.20;99.90;;;;;;5104994;27;20054;-70
2022/09/05 00:44:59;;;;;;;31.25;9.02;;;18.20;99.90;;;;;;5107795;27;20028;-70
2022/09/05 00:47:48;;;;;;;31.52;7.45;;;18.20;99.90;;;;;;5094639;28;20061;-70
2022/09/05 00:50:54;;;;;;;27.33;6.82;;;18.10;99.90;;;;;;5104879;28;20032;-70
2022/09/05 00:53:28;;;;;;;28.58;6.88;;;18.10;99.90;;;;;;5006467;28;20399;-70
2022/09/05 00:56:21;;;;;;;28.95;7.03;;;18.00;99.90;;;;;;5036018;28;20206;-72
2022/09/05 00:59:24;;;;;;;28.33;7.15;;;18.00;99.90;;;;;;5021507;28;20466;-70
2022/09/05 01:01:57;;;;;;;28.48;7.45;;;18.00;99.90;;;;;;5036410;28;20033;-71
2022/09/05 01:04:37;;;;;;;27.65;7.55;;;18.00;99.90;;;;;;5034780;28;20095;-70
2022/09/05 01:07:25;;;;;;;27.30;7.35;;;17.90;99.90;;;;;;5022914;28;20554;-71
2022/09/05 01:10:03;;;;;;;26.13;7.93;;;17.90;99.90;;;;;;5022039;28;20029;-70
2022/09/05 01:12:54;;;;;;;30.95;7.47;;;17.90;99.90;;;;;;5020387;28;20033;-70
2022/09/05 01:15:27;;;;;;;20.13;7.07;;;17.90;99.90;;;;;;4958936;28;20520;-69
2022/09/05 01:18:39;;;;;;;24.92;7.00;;;17.80;99.90;;;;;;4957779;28;20164;-70
2022/09/05 01:21:19;;;;;;;24.67;7.03;;;17.80;99.90;;;;;;4902798;29;20522;-71
2022/09/05 01:24:11;;;;;;;27.95;7.65;;;17.80;99.90;;;;;;4906669;29;20179;-70
2022/09/05 01:26:55;;;;;;;28.83;8.10;;;17.70;99.90;;;;;;4904075;29;20054;-70
2022/09/05 01:29:41;;;;;;;34.10;8.43;;;17.70;99.90;;;;;;4928451;29;20240;-69
2022/09/05 01:32:07;;;;;;;30.98;7.82;;;17.70;99.90;;;;;;4926615;29;20036;-70
2022/09/05 01:34:53;;;;;;;29.42;7.95;;;17.70;99.90;;;;;;4928302;29;20062;-71
2022/09/05 01:37:34;;;;;;;26.52;8.43;;;17.70;99.90;;;;;;4928663;29;20051;-69
2022/09/05 01:40:24;;;;;;;35.88;9.07;;;17.60;99.90;;;;;;4924394;29;20475;-70
2022/09/05 01:43:15;;;;;;;;;;;17.70;99.90;;;;;;4928062;29;20047;-70
2022/09/05 01:45:40;;;;;;;27.58;8.70;;;17.60;99.90;;;;;;4926778;29;19915;-70
2022/09/05 01:48:40;;;;;;;28.83;7.72;;;17.60;99.90;;;;;;4925583;29;20032;-70
2022/09/05 01:51:20;;;;;;;;;;;17.60;99.90;;;;;;4923002;29;20086;-70
2022/09/05 01:53:51;;;;;;;24.50;7.85;;;17.50;99.90;;;;;;5006988;28;20691;-70
2022/09/05 01:56:28;;;;;;;19.10;7.07;;;17.50;99.90;;;;;;5051362;27;20381;-70
2022/09/05 01:59:00;;;;;;;24.42;7.90;;;17.50;99.90;;;;;;5107200;27;20031;-70
2022/09/05 02:01:39;;;;;;;22.98;7.25;;;17.50;99.90;;;;;;5112241;27;20035;-70
2022/09/05 02:04:38;;;;;;;27.42;8.60;;;17.40;99.90;;;;;;5110329;27;22213;-71
2022/09/05 02:07:23;;;;;;;;;;;17.30;99.90;;;;;;5111770;27;20046;-70
2022/09/05 02:10:17;;;;;;;18.67;7.53;;;17.30;99.90;;;;;;5103362;28;20543;-69
2022/09/05 02:12:54;;;;;;;26.30;7.30;;;17.30;99.90;;;;;;5102049;28;20035;-69
2022/09/05 02:15:27;;;;;;;25.65;7.45;;;17.30;99.90;;;;;;5113102;27;20027;-70
2022/09/05 02:17:57;;;;;;;25.13;7.30;;;17.30;99.90;;;;;;5105859;28;20043;-69
2022/09/05 02:20:29;;;;;;;22.75;7.85;;;17.20;99.90;;;;;;5112213;27;20371;-69
2022/09/05 02:23:21;;;;;;;22.17;6.32;;;17.20;99.90;;;;;;5115329;27;20084;-69
2022/09/05 02:25:54;;;;;;;20.48;6.57;;;17.20;99.90;;;;;;5085600;28;20027;-68
2022/09/05 02:28:28;;;;;;;22.77;7.90;;;17.20;99.90;;;;;;5105902;27;20027;-68
2022/09/05 02:31:03;;;;;;;24.10;8.38;;;17.20;99.90;;;;;;5108506;28;20036;-69
2022/09/05 02:33:39;;;;;;;19.33;7.03;;;17.20;99.90;;;;;;5107707;27;20062;-69
2022/09/05 02:36:20;;;;;;;31.85;8.88;;;17.10;99.90;;;;;;5106738;28;20724;-71
2022/09/05 02:38:54;;;;;;;21.02;7.40;;;17.20;99.90;;;;;;5091405;28;20071;-68
2022/09/05 02:41:31;;;;;;;22.80;8.50;;;17.20;99.90;;;;;;5114803;27;20024;-68
2022/09/05 02:44:09;;;;;;;23.70;8.00;;;17.10;99.90;;;;;;5087575;27;20051;-68
2022/09/05 02:46:46;;;;;;;22.70;8.98;;;17.10;99.90;;;;;;5100983;27;20032;-69
2022/09/05 02:49:51;;;;;;;20.38;8.10;;;17.10;99.90;;;;;;5107308;27;20990;-69
2022/09/05 02:52:22;;;;;;;22.45;7.63;;;17.10;99.90;;;;;;5070291;28;20044;-69
2022/09/05 02:54:50;;;;;;;21.38;7.72;;;17.10;99.90;;;;;;5114597;27;20092;-69
2022/09/05 02:57:24;;;;;;;24.70;6.88;;;17.00;99.90;;;;;;5109046;27;20050;-69
2022/09/05 03:00:02;;;;;;;19.35;6.70;;;17.00;99.90;;;;;;5094505;28;20028;-69
2022/09/05 03:02:56;;;;;;;19.42;6.70;;;17.00;99.90;;;;;;5110620;27;20027;-70
2022/09/05 03:05:30;;;;;;;25.30;7.15;;;17.00;99.90;;;;;;5089760;28;20031;-69
2022/09/05 03:08:04;;;;;;;27.08;7.50;;;17.10;99.90;;;;;;5109585;27;20043;-69
2022/09/05 03:10:39;;;;;;;19.30;6.78;;;17.10;99.90;;;;;;5102689;28;20173;-69
2022/09/05 03:13:35;;;;;;;20.83;6.90;;;17.10;99.90;;;;;;5092810;27;20047;-70
2022/09/05 03:16:20;;;;;;;24.85;7.22;;;17.10;99.90;;;;;;5107058;27;20039;-70
2022/09/05 03:19:10;;;;;;;23.17;7.53;;;17.10;99.90;;;;;;5090662;28;20027;-71
2022/09/05 03:22:06;;;;;;;17.60;6.68;;;17.20;99.90;;;;;;5088199;27;20027;-69
2022/09/05 03:25:02;;;;;;;23.50;6.63;;;17.20;99.90;;;;;;5113990;27;20494;-68
2022/09/05 03:27:46;;;;;;;20.15;5.88;;;17.30;99.90;;;;;;5112953;27;20043;-70
2022/09/05 03:30:23;;;;;;;21.63;6.82;;;17.30;99.90;;;;;;5116573;27;20031;-69
2022/09/05 03:33:18;;;;;;;18.02;5.78;;;17.40;99.90;;;;;;5106123;27;20138;-69
2022/09/05 03:36:07;;;;;;;15.40;5.57;;;17.40;99.90;;;;;;5116511;27;20032;-69
2022/09/05 03:38:48;;;;;;;15.70;5.50;;;17.40;99.90;;;;;;5101375;28;20024;-70
2022/09/05 03:42:01;;;;;;;20.45;6.93;;;17.50;99.90;;;;;;5091580;28;20143;-71
2022/09/05 03:44:32;;;;;;;20.40;5.75;;;17.50;99.90;;;;;;5013546;28;20069;-69
2022/09/05 03:47:12;;;;;;;20.80;6.00;;;17.50;99.90;;;;;;5003580;28;20038;-68
2022/09/05 03:49:45;;;;;;;15.95;6.30;;;17.50;99.90;;;;;;5006747;28;20037;-68
2022/09/05 03:52:24;;;;;;;17.80;6.43;;;17.50;99.90;;;;;;5011048;28;20044;-68
2022/09/05 03:54:52;;;;;;;21.80;6.30;;;17.50;99.90;;;;;;5002774;28;20049;-69
2022/09/05 03:57:30;;;;;;;20.20;6.45;;;17.50;99.90;;;;;;5018025;28;20295;-68
2022/09/05 04:00:06;;;;;;;25.27;6.93;;;17.50;99.90;;;;;;4999200;28;20056;-70
2022/09/05 04:02:42;;;;;;;16.67;7.80;;;17.50;99.90;;;;;;5012068;28;20052;-68
2022/09/05 04:05:13;;;;;;;20.40;7.57;;;17.50;99.90;;;;;;5001881;28;20060;-69
2022/09/05 04:07:42;;;;;;;16.02;7.88;;;17.40;99.90;;;;;;5004464;28;20177;-68
2022/09/05 04:10:30;;;;;;;22.83;7.30;;;17.30;99.90;;;;;;4980210;28;20680;-69
2022/09/05 04:13:07;;;;;;;21.48;8.20;;;17.30;99.90;;;;;;4999459;28;20025;-68
2022/09/05 04:15:46;;;;;;;23.42;8.48;;;17.30;99.90;;;;;;5015335;28;20029;-69
2022/09/05 04:18:17;;;;;;;19.25;7.68;;;17.20;99.90;;;;;;5005534;28;20045;-69
2022/09/05 04:21:18;;;;;;;20.13;8.73;;;17.20;99.90;;;;;;5071630;27;20580;-67
2022/09/05 04:24:09;;;;;;;19.10;7.85;;;17.10;99.90;;;;;;5044913;28;20597;-68
2022/09/05 04:26:58;;;;;;;22.30;7.55;;;17.10;99.90;;;;;;5029597;28;20044;-68
2022/09/05 04:29:34;;;;;;;21.20;8.35;;;17.10;99.90;;;;;;5051687;28;20041;-69
2022/09/05 04:32:02;;;;;;;21.80;8.13;;;17.10;99.90;;;;;;5041252;28;20047;-69
2022/09/05 04:34:38;;;;;;;19.80;7.90;;;17.10;99.90;;;;;;5045420;28;20048;-70
2022/09/05 04:37:07;;;;;;;22.27;8.52;;;17.10;99.90;;;;;;5043557;28;20040;-70
2022/09/05 04:39:34;;;;;;;21.00;7.90;;;17.10;99.90;;;;;;5030612;28;20485;-69
2022/09/05 04:42:14;;;;;;;16.48;7.68;;;17.10;99.90;;;;;;5043085;28;20110;-70
2022/09/05 04:45:08;;;;;;;14.20;7.53;;;16.90;99.90;;;;;;5042185;28;20099;-69
2022/09/05 04:47:41;;;;;;;16.42;6.97;;;16.90;99.90;;;;;;5043436;28;20041;-69
2022/09/05 04:50:14;;;;;;;15.20;7.03;;;16.90;99.90;;;;;;5023463;28;20047;-70
2022/09/05 04:53:01;;;;;;;17.70;7.30;;;16.80;99.90;;;;;;5033433;28;20102;-70
2022/09/05 04:55:36;;;;;;;14.77;7.65;;;16.80;99.90;;;;;;5045866;28;20083;-69
2022/09/05 04:58:22;;;;;;;21.05;7.88;;;16.80;99.90;;;;;;5079940;28;20512;-70
2022/09/05 05:01:05;;;;;;;17.50;7.18;;;16.80;99.90;;;;;;5106634;28;20135;-69
2022/09/05 05:03:34;;;;;;;19.45;8.00;;;16.80;99.90;;;;;;5107969;28;20814;-70
2022/09/05 05:06:21;;;;;;;17.25;8.68;;;16.80;99.90;;;;;;5116167;27;20039;-69
2022/09/05 05:09:14;;;;;;;18.38;7.00;;;16.80;99.90;;;;;;5091637;28;20028;-71
2022/09/05 05:11:45;;;;;;;17.02;7.45;;;16.80;99.90;;;;;;5112934;27;20031;-70
2022/09/05 05:14:32;;;;;;;14.05;6.65;;;16.80;99.90;;;;;;5109255;27;20023;-70
2022/09/05 05:17:07;;;;;;;13.80;7.10;;;16.60;99.90;;;;;;5110680;28;20083;-69
2022/09/05 05:19:46;;;;;;;13.88;7.80;;;16.50;99.90;;;;;;5107579;27;20469;-69
2022/09/05 05:22:16;;;;;;;17.75;8.90;;;16.50;99.90;;;;;;5093100;28;20514;-69
2022/09/05 05:24:47;;;;;;;14.52;7.32;;;16.50;99.90;;;;;;5109906;27;20064;-69
2022/09/05 05:27:32;;;;;;;15.40;6.93;;;16.50;99.90;;;;;;5117686;27;20047;-70
2022/09/05 05:30:10;;;;;;;19.08;8.73;;;16.40;99.90;;;;;;5114522;27;20040;-69
2022/09/05 05:32:41;;;;;;;15.25;7.72;;;16.40;99.90;;;;;;5103941;27;20437;-71
2022/09/05 05:35:10;;;;;;;16.35;7.53;;;16.40;99.90;;;;;;5093082;28;20032;-70
2022/09/05 05:37:49;;;;;;;13.98;7.07;;;16.30;99.90;;;;;;5112936;27;20109;-69
2022/09/05 05:40:14;;;;;;;18.88;8.52;;;16.40;99.90;;;;;;5110856;27;20054;-70
2022/09/05 05:42:41;;;;;;;19.88;9.20;;;16.40;99.90;;;;;;5095332;28;20128;-70
2022/09/05 05:45:20;;;;;;;21.77;8.95;;;16.40;99.90;;;;;;5114598;27;20111;-70
2022/09/05 05:47:51;;;;;;;16.87;7.50;;;16.40;99.90;;;;;;5105527;28;20040;-69
2022/09/05 05:50:26;;;;;;;17.70;7.70;;;16.50;99.90;;;;;;5110378;27;20062;-70
2022/09/05 05:53:16;;;;;;;15.50;8.27;;;16.50;99.90;;;;;;5107120;27;20019;-69
2022/09/05 05:56:12;;;;;;;19.50;7.13;;;16.50;99.90;;;;;;5110207;27;20036;-71
2022/09/05 05:58:47;;;;;;;18.92;8.27;;;16.50;99.90;;;;;;5104081;27;20085;-70
2022/09/05 06:01:15;;;;;;;17.45;7.85;;;16.60;99.90;;;;;;5121441;27;20528;-71
2022/09/05 06:04:31;;;;;;;18.13;7.15;;;16.70;99.90;;;;;;5110030;27;21433;-70
2022/09/05 06:07:24;;;;;;;17.42;7.65;;;16.70;99.90;;;;;;5081159;28;20032;-69
2022/09/05 06:10:09;;;;;;;14.98;6.88;;;16.60;99.90;;;;;;5104481;28;20127;-70
2022/09/05 06:12:46;;;;;;;19.38;7.50;;;16.60;99.90;;;;;;5083390;28;20054;-70
2022/09/05 06:16:01;;;;;;;13.32;6.80;;;16.60;99.90;;;;;;5100951;27;20533;-71
2022/09/05 06:18:29;;;;;;;20.02;7.47;;;16.70;99.90;;;;;;5069259;27;20691;-69
2022/09/05 06:21:34;;;;;;;14.23;7.78;;;16.70;99.90;;;;;;5099462;28;20027;-71
2022/09/05 06:24:28;;;;;;;16.70;7.32;;;16.70;99.90;;;;;;5099268;28;20031;-70
2022/09/05 06:27:19;;;;;;;16.88;6.88;;;16.70;99.90;;;;;;5101895;28;20519;-69
2022/09/05 06:29:57;;;;;;;14.65;7.13;;;16.70;99.90;;;;;;5087172;28;20404;-70
2022/09/05 06:33:00;;;;;;;28.45;8.90;;;16.70;99.90;;;;;;5107520;28;20028;-69
2022/09/05 06:35:30;;;;;;;31.05;9.77;;;16.70;99.90;;;;;;5110606;27;20092;-69
2022/09/05 06:38:14;;;;;;;21.40;9.00;;;16.70;99.90;;;;;;5089373;28;20074;-69
2022/09/05 06:41:20;;;;;;;23.00;8.20;;;16.80;99.90;;;;;;5109119;27;20033;-70
2022/09/05 06:44:14;;;;;;;20.50;8.27;;;16.80;99.90;;;;;;5086710;28;20035;-70
2022/09/05 06:46:44;;;;;;;21.23;7.88;;;16.80;99.90;;;;;;5109754;27;20431;-70
2022/09/05 06:49:50;;;;;;;21.80;8.30;;;16.90;99.90;;;;;;5110171;27;20035;-70
2022/09/05 06:52:40;;;;;;;21.65;9.23;;;16.90;99.90;;;;;;5107104;28;20038;-70
2022/09/05 06:55:15;;;;;;;20.35;9.85;;;16.90;99.90;;;;;;5103821;27;20023;-72
2022/09/05 06:58:05;;;;;;;19.77;9.98;;;17.00;99.90;;;;;;5101477;27;20088;-70
2022/09/05 07:00:43;;;;;;;18.23;9.27;;;17.00;99.90;;;;;;5101196;27;20032;-70
2022/09/05 07:03:23;;;;;;;16.25;9.38;;;17.10;99.90;;;;;;5078060;28;20031;-71
2022/09/05 07:06:28;;;;;;;16.27;7.03;;;17.10;99.90;;;;;;5102583;27;20027;-70
2022/09/05 07:09:24;;;;;;;14.05;6.88;;;17.10;99.90;;;;;;5111711;27;20040;-71
2022/09/05 07:12:16;;;;;;;16.75;7.78;;;17.10;99.90;;;;;;5092829;27;20080;-69
2022/09/05 07:14:58;;;;;;;14.20;7.18;;;17.20;99.90;;;;;;5105887;27;20104;-70
2022/09/05 07:18:06;;;;;;;16.80;7.50;;;17.20;99.90;;;;;;5107553;27;20047;-70
2022/09/05 07:20:49;;;;;;;13.57;7.30;;;17.20;99.90;;;;;;5041836;28;20398;-70
2022/09/05 07:23:42;;;;;;;18.25;8.15;;;17.30;99.90;;;;;;5025351;28;20610;-70
2022/09/05 07:26:09;;;;;;;17.20;8.35;;;17.40;99.90;;;;;;5045138;28;20056;-70
2022/09/05 07:28:40;;;;;;;14.13;7.75;;;17.40;99.90;;;;;;5046463;28;20032;-70
2022/09/05 07:31:14;;;;;;;16.05;9.63;;;17.50;99.90;;;;;;5027222;28;20037;-71
2022/09/05 07:33:43;;;;;;;22.38;11.73;;;17.60;99.90;;;;;;5019964;28;20047;-70
2022/09/05 07:36:33;;;;;;;26.00;15.93;;;17.70;99.90;;;;;;5029744;28;20049;-70
2022/09/05 07:39:00;;;;;;;;;;;17.80;99.90;;;;;;5027166;28;20034;-70
2022/09/05 07:41:33;;;;;;;31.23;21.92;;;17.90;99.90;;;;;;5026285;28;20012;-70
2022/09/05 07:44:09;;;;;;;35.80;27.73;;;18.10;99.90;;;;;;5026362;28;20068;-69
2022/09/05 07:46:39;;;;;;;18.02;11.00;;;18.20;99.90;;;;;;5025455;28;20512;-69
2022/09/05 07:49:08;;;;;;;20.00;12.95;;;18.30;99.90;;;;;;5049239;28;20118;-69
2022/09/05 07:51:38;;;;;;;17.05;9.60;;;18.40;99.90;;;;;;5072696;28;20600;-71
2022/09/05 07:54:17;;;;;;;12.82;7.57;;;18.50;99.90;;;;;;5092638;28;20504;-69
2022/09/05 07:56:56;;;;;;;13.13;6.95;;;18.50;99.90;;;;;;5108781;28;20034;-69
2022/09/05 07:59:27;;;;;;;12.90;6.05;;;18.50;99.90;;;;;;5092379;28;20032;-69
2022/09/05 08:01:55;;;;;;;11.80;6.15;;;18.60;99.90;;;;;;5102446;28;20035;-71
2022/09/05 08:04:35;;;;;;;12.38;6.88;;;18.60;99.90;;;;;;5097333;28;20034;-69
2022/09/05 08:07:13;;;;;;;16.48;10.05;;;18.60;99.90;;;;;;5099228;28;20057;-69
2022/09/05 08:09:48;;;;;;;12.80;9.20;;;18.70;99.90;;;;;;5090242;28;20039;-69
2022/09/05 08:12:16;;;;;;;14.73;8.65;;;18.80;99.90;;;;;;5103504;28;20028;-69
2022/09/05 08:15:02;;;;;;;11.80;7.00;;;18.80;99.90;;;;;;5088404;28;20062;-69
2022/09/05 08:17:27;;;;;;;18.60;12.15;;;18.90;99.90;;;;;;5101649;28;20119;-69
2022/09/05 08:20:37;;;;;;;24.13;14.13;;;19.00;99.90;;;;;;5100002;28;20114;-69
2022/09/05 08:23:42;;;;;;;35.58;19.58;;;19.10;99.90;;;;;;5060488;28;20028;-69
2022/09/05 08:26:14;;;;;;;27.48;15.02;;;19.10;99.90;;;;;;5065388;28;20036;-69
2022/09/05 08:28:47;;;;;;;31.20;17.58;;;19.20;99.90;;;;;;5048291;28;20040;-70
2022/09/05 08:31:18;;;;;;;34.92;20.15;;;19.20;99.90;;;;;;5041854;28;20041;-69
2022/09/05 08:33:47;;;;;;;44.58;26.45;;;19.20;99.90;;;;;;5044238;28;20217;-70
2022/09/05 08:36:25;;;;;;;40.08;22.85;;;19.30;99.90;;;;;;5036457;28;20036;-69
2022/09/05 08:38:51;;;;;;;18.85;9.60;;;19.30;99.90;;;;;;5044730;28;20033;-70
2022/09/05 08:41:41;;;;;;;16.58;9.23;;;19.30;99.90;;;;;;5039638;28;20048;-70
2022/09/05 08:44:17;;;;;;;13.23;6.03;;;19.40;99.90;;;;;;5023149;28;20029;-70
2022/09/05 08:47:01;;;;;;;13.43;6.30;;;19.40;99.90;;;;;;5028131;28;20040;-70
2022/09/05 08:49:41;;;;;;;7.50;3.58;;;19.40;99.90;;;;;;5041278;28;20084;-72
2022/09/05 08:52:12;;;;;;;9.35;4.18;;;19.40;99.90;;;;;;5038881;28;20124;-70
2022/09/05 08:55:14;;;;;;;9.93;4.10;;;19.40;99.90;;;;;;5089459;28;20106;-70
2022/09/05 08:58:04;;;;;;;8.05;4.07;;;19.50;99.90;;;;;;5104226;28;20040;-70
2022/09/05 09:00:38;;;;;;;8.50;3.80;;;19.40;99.90;;;;;;5101836;28;20028;-70
2022/09/05 09:03:27;;;;;;;8.18;4.20;;;19.50;99.90;;;;;;5098365;28;20119;-71
2022/09/05 09:06:01;;;;;;;12.65;6.68;;;19.60;99.90;;;;;;5082727;28;20035;-71
2022/09/05 09:08:36;;;;;;;14.73;7.50;;;19.60;99.90;;;;;;5089953;28;20040;-69
2022/09/05 09:11:08;;;;;;;15.13;8.23;;;19.60;99.90;;;;;;5098248;28;20085;-69
2022/09/05 09:13:46;;;;;;;11.25;5.60;;;19.70;99.90;;;;;;5107227;28;20059;-70
2022/09/05 09:16:54;;;;;;;11.85;5.10;;;19.70;99.90;;;;;;5105035;28;20071;-70
2022/09/05 09:19:47;;;;;;;9.45;4.38;;;19.80;99.90;;;;;;5090530;28;20501;-70
2022/09/05 09:22:36;;;;;;;9.10;4.40;;;19.80;99.90;;;;;;5107040;28;20036;-70
2022/09/05 09:25:15;;;;;;;8.07;3.67;;;19.80;99.90;;;;;;5079184;28;20027;-70
2022/09/05 09:27:43;;;;;;;9.20;4.10;;;19.80;99.90;;;;;;5098029;28;20047;-70
2022/09/05 09:30:12;;;;;;;8.45;4.72;;;19.80;99.90;;;;;;5103502;28;20063;-70
2022/09/05 09:33:02;;;;;;;12.47;5.43;;;19.80;99.90;;;;;;5105718;28;20040;-69
2022/09/05 09:35:51;;;;;;;9.30;4.30;;;19.90;99.90;;;;;;5076673;28;20039;-69
2022/09/05 09:38:24;;;;;;;9.70;3.95;;;19.90;99.90;;;;;;5107848;28;20035;-70
2022/09/05 09:41:22;;;;;;;10.15;4.45;;;19.90;99.90;;;;;;5099829;28;20036;-70
2022/09/05 09:43:57;;;;;;;10.00;4.32;;;20.00;99.90;;;;;;5101625;28;20071;-70
2022/09/05 09:46:33;;;;;;;9.65;3.78;;;20.10;99.90;;;;;;5096560;28;20043;-69
2022/09/05 09:49:26;;;;;;;8.32;4.10;;;20.10;99.90;;;;;;5093030;28;20031;-70
2022/09/05 09:52:20;;;;;;;9.30;3.80;;;20.20;99.90;;;;;;5069737;28;20036;-69
2022/09/05 09:55:06;;;;;;;12.52;5.15;;;20.10;99.90;;;;;;5072899;28;20028;-70
2022/09/05 09:57:32;;;;;;;10.70;3.50;;;20.20;99.90;;;;;;5090913;28;20385;-70
2022/09/05 10:00:21;;;;;;;6.90;3.10;;;20.20;99.90;;;;;;5090880;28;20032;-69
2022/09/05 10:03:29;;;;;;;10.70;3.55;;;20.20;99.90;;;;;;5091074;28;20028;-69
2022/09/05 10:06:03;;;;;;;8.05;3.05;;;20.30;99.90;;;;;;5091196;28;20619;-69
2022/09/05 10:08:59;;;;;;;5.80;2.70;;;20.30;99.90;;;;;;5091132;28;20354;-69
2022/09/05 10:11:37;;;;;;;8.82;3.78;;;20.30;99.90;;;;;;5091014;28;20405;-70
2022/09/05 10:14:15;;;;;;;7.80;3.47;;;20.30;99.90;;;;;;5090900;28;20036;-70
2022/09/05 10:17:03;;;;;;;8.82;2.92;;;20.40;99.90;;;;;;5072516;28;20036;-70
2022/09/05 10:20:01;;;;;;;9.52;3.63;;;20.40;99.90;;;;;;5091390;28;20121;-70
2022/09/05 10:22:58;;;;;;;6.20;2.92;;;20.50;99.90;;;;;;5090843;28;20032;-70
2022/09/05 10:25:41;;;;;;;9.15;2.83;;;20.50;99.90;;;;;;5090845;28;20032;-70
2022/09/05 10:28:22;;;;;;;7.93;2.83;;;20.60;99.90;;;;;;5097064;28;20035;-68
2022/09/05 10:30:58;;;;;;;8.27;2.70;;;20.60;99.90;;;;;;5110976;28;20076;-68
2022/09/05 10:33:38;;;;;;;9.40;3.10;;;20.70;99.90;;;;;;5110958;28;20477;-69
2022/09/05 10:36:30;;;;;;;6.85;2.55;;;20.70;99.90;;;;;;5111122;28;20040;-68
2022/09/05 10:39:16;;;;;;;8.52;3.10;;;20.80;99.90;;;;;;5106207;28;20455;-68
2022/09/05 10:41:53;;;;;;;8.63;3.17;;;20.80;99.90;;;;;;5110529;28;20056;-68
2022/09/05 10:44:39;;;;;;;11.95;4.32;;;20.80;99.90;;;;;;5110869;28;20036;-68
2022/09/05 10:47:31;;;;;;;11.30;4.43;;;20.80;99.90;;;;;;5110674;28;20043;-68
2022/09/05 10:50:31;;;;;;;11.50;4.20;;;20.80;99.90;;;;;;5091941;28;20057;-69
2022/09/05 10:53:25;;;;;;;11.80;4.20;;;20.80;99.90;;;;;;5077772;28;20040;-69
2022/09/05 10:56:10;;;;;;;8.93;3.33;;;20.80;99.90;;;;;;5110643;28;20519;-69
2022/09/05 10:58:57;;;;;;;10.32;3.55;;;20.80;99.90;;;;;;5109965;28;20035;-69
2022/09/05 11:01:25;;;;;;;7.18;3.33;;;20.80;99.90;;;;;;5110529;28;20070;-70
2022/09/05 11:04:00;;;;;;;9.23;3.08;;;20.80;99.90;;;;;;5109706;28;20038;-70
2022/09/05 11:06:51;;;;;;;8.07;3.17;;;20.90;99.90;;;;;;5089002;28;20469;-71
2022/09/05 11:09:34;;;;;;;9.75;3.40;;;21.10;99.90;;;;;;5080987;28;20043;-70
2022/09/05 11:12:11;;;;;;;6.43;3.13;;;21.30;99.90;;;;;;5090906;28;20036;-70
2022/09/05 11:14:51;;;;;;;8.02;2.70;;;21.50;99.90;;;;;;5109820;28;20034;-70
2022/09/05 11:17:59;;;;;;;8.85;2.90;;;21.60;99.90;;;;;;5109860;28;20036;-71
2022/09/05 11:20:45;;;;;;;8.00;2.72;;;21.70;99.90;;;;;;5008684;28;20041;-70
2022/09/05 11:23:20;;;;;;;7.15;2.42;;;21.80;99.90;;;;;;5007984;28;20276;-70
2022/09/05 11:25:49;;;;;;;6.20;1.95;;;21.70;99.90;;;;;;5028427;28;20046;-70
2022/09/05 11:28:24;;;;;;;8.27;2.67;;;21.60;99.90;;;;;;5022295;28;20041;-70
2022/09/05 11:30:52;;;;;;;7.88;2.20;;;21.50;99.90;;;;;;5045399;28;20106;-70
2022/09/05 11:33:46;;;;;;;6.43;2.22;;;21.40;99.90;;;;;;5023418;28;20029;-69
2022/09/05 11:36:24;;;;;;;6.60;2.00;;;21.30;99.90;;;;;;5004379;28;20047;-70
2022/09/05 11:39:21;;;;;;;7.80;2.50;;;21.20;99.90;;;;;;5024513;28;20037;-70
2022/09/05 11:42:22;;;;;;;7.68;2.17;;;21.10;99.90;;;;;;5019032;28;20111;-70
2022/09/05 11:44:55;;;;;;;6.25;2.15;;;21.10;99.90;;;;;;4982885;28;20097;-70
2022/09/05 11:47:26;;;;;;;7.53;2.17;;;21.20;99.90;;;;;;5005408;28;20066;-70
2022/09/05 11:50:39;;;;;;;8.50;2.45;;;21.40;99.90;;;;;;4986857;28;20202;-70
2022/09/05 11:53:34;;;;;;;5.65;2.45;;;21.40;99.90;;;;;;5046028;28;20516;-71
2022/09/05 11:56:17;;;;;;;6.55;2.35;;;21.50;99.90;;;;;;5005868;28;20061;-70
2022/09/05 11:58:50;;;;;;;5.57;2.30;;;21.50;99.90;;;;;;5006254;28;20510;-71
2022/09/05 12:01:16;;;;;;;6.75;2.50;;;21.60;99.90;;;;;;4989714;28;20470;-68
2022/09/05 12:03:58;;;;;;;5.03;2.28;;;21.60;99.90;;;;;;5021574;28;20510;-69
2022/09/05 12:07:01;;;;;;;5.78;2.40;;;21.60;99.90;;;;;;5025838;28;20479;-69
2022/09/05 12:09:31;;;;;;;6.28;2.42;;;21.70;99.90;;;;;;5025480;28;20049;-69
2022/09/05 12:12:05;;;;;;;6.07;2.15;;;21.80;99.90;;;;;;5022120;28;20483;-68
2022/09/05 12:15:04;;;;;;;9.55;2.80;;;21.80;99.90;;;;;;5006131;28;20052;-68
2022/09/05 12:17:38;;;;;;;6.88;2.40;;;21.80;99.90;;;;;;5023507;28;20041;-70
2022/09/05 12:20:35;;;;;;;8.98;2.83;;;21.90;99.90;;;;;;5008900;28;20041;-69
2022/09/05 12:23:25;;;;;;;7.10;2.35;;;22.00;99.90;;;;;;5014669;28;20127;-70
2022/09/05 12:26:09;;;;;;;;;;;22.10;99.90;;;;;;5045670;28;20053;-71
2022/09/05 12:28:45;;;;;;;8.00;2.60;;;22.00;99.90;;;;;;5045434;28;19978;-70
2022/09/05 12:31:13;;;;;;;4.10;1.70;;;22.20;99.90;;;;;;5044757;28;20052;-70
2022/09/05 12:33:45;;;;;;;7.55;2.17;;;22.40;99.90;;;;;;5100483;28;20044;-69
2022/09/05 12:36:16;;;;;;;4.80;1.75;;;22.60;99.90;;;;;;5106695;28;20110;-69
2022/09/05 12:38:52;;;;;;;4.35;1.42;;;22.70;99.90;;;;;;5108663;28;20076;-71
2022/09/05 12:41:24;;;;;;;5.00;1.63;;;22.70;99.90;;;;;;5108612;28;20035;-71
2022/09/05 12:44:01;;;;;;;5.88;2.10;;;22.70;99.90;;;;;;5090217;28;20023;-70
2022/09/05 12:46:49;;;;;;;4.53;1.60;;;22.80;99.90;;;;;;5090287;28;20469;-70
2022/09/05 12:49:44;;;;;;;4.32;1.60;;;23.00;99.90;;;;;;5109042;28;20032;-70
2022/09/05 12:52:32;;;;;;;6.15;1.80;;;23.30;99.90;;;;;;5074690;28;20040;-71
2022/09/05 12:55:32;;;;;;;5.67;1.60;;;23.60;99.90;;;;;;5077851;28;20028;-71
2022/09/05 12:58:15;;;;;;;6.25;1.40;;;23.70;99.90;;;;;;5093857;28;20044;-70
2022/09/05 13:00:44;;;;;;;5.55;1.65;;;23.70;99.90;;;;;;5080214;28;20086;-71
2022/09/05 13:03:22;;;;;;;4.70;1.60;;;23.90;99.90;;;;;;5104924;28;20028;-71
2022/09/05 13:06:07;;;;;;;7.13;1.92;;;24.10;99.90;;;;;;5108785;28;20085;-71
2022/09/05 13:08:46;;;;;;;7.65;1.60;;;24.50;99.90;;;;;;5082754;28;20109;-71
2022/09/05 13:11:13;;;;;;;3.90;1.77;;;25.60;98.90;;;;;;5103490;28;20503;-71
2022/09/05 13:13:45;;;;;;;5.10;1.67;;;25.60;95.70;;;;;;5108062;28;20115;-71
2022/09/05 13:16:19;;;;;;;3.95;1.48;;;25.40;95.40;;;;;;5088353;28;20027;-71
2022/09/05 13:18:45;;;;;;;6.00;1.83;;;25.40;95.00;;;;;;5106906;28;20405;-71
2022/09/05 13:21:23;;;;;;;5.07;1.73;;;25.20;96.00;;;;;;5108133;28;20032;-72
2022/09/05 13:24:26;;;;;;;4.78;1.30;;;25.00;95.40;;;;;;5105178;27;20042;-71
2022/09/05 13:27:38;;;;;;;4.72;1.58;;;25.00;97.40;;;;;;5109383;27;20035;-71
2022/09/05 13:30:09;;;;;;;7.03;1.95;;;24.90;96.40;;;;;;5027497;28;20140;-70
2022/09/05 13:32:42;;;;;;;6.05;1.40;;;24.80;96.90;;;;;;5042301;28;20326;-71
2022/09/05 13:35:21;;;;;;;4.32;1.45;;;24.70;98.50;;;;;;5010658;28;20499;-70
2022/09/05 13:38:03;;;;;;;4.90;1.33;;;24.70;97.20;;;;;;5024852;28;20120;-71
2022/09/05 13:40:43;;;;;;;4.80;1.50;;;24.60;97.70;;;;;;5027169;28;20025;-71
2022/09/05 13:43:11;;;;;;;5.13;1.48;;;24.40;97.00;;;;;;5008848;28;20049;-71
2022/09/05 13:46:09;;;;;;;5.18;1.42;;;24.70;98.30;;;;;;5026564;28;20038;-71
2022/09/05 13:48:49;;;;;;;5.43;1.63;;;25.30;97.10;;;;;;5016779;28;20049;-71
2022/09/05 13:51:45;;;;;;;6.63;1.73;;;25.50;96.10;;;;;;5025939;28;20034;-70
2022/09/05 13:54:25;;;;;;;4.70;1.40;;;25.50;96.70;;;;;;5023150;28;20037;-71
2022/09/05 13:57:03;;;;;;;5.10;1.40;;;25.50;94.80;;;;;;5026575;28;20034;-71